Time;durP1;ratioP1;P1;durP2;ratioP2;P2;SDS_P1;SDS_P2;PMS_P1;PMS_P2;Temp;Humidity;BMP_temperature;BMP_pressure;BME280_temperature;BME280_humidity;BME280_pressure;Samples;Min_cycle;Max_cycle;Signal;HPM_P1;HPM_P2
2023/04/16 00:02:18;;;;;;;92.18;29.92;;;;;;;;;;4816643;29;20045;-82
2023/04/16 00:04:44;;;;;;;65.97;27.30;;;;;;;;;;4816898;29;20045;-82
2023/04/16 00:07:10;;;;;;;81.10;26.63;;;;;;;;;;4799607;29;20041;-81
2023/04/16 00:09:36;;;;;;;69.85;27.40;;;;;;;;;;4827600;29;20098;-81
2023/04/16 00:12:02;;;;;;;83.25;28.25;;;;;;;;;;4814741;29;20121;-82
2023/04/16 00:14:29;;;;;;;80.40;29.05;;;;;;;;;;4814581;29;20087;-82
2023/04/16 00:16:55;;;;;;;83.38;31.23;;;;;;;;;;4820095;29;20054;-81
2023/04/16 00:19:21;;;;;;;71.15;27.15;;;;;;;;;;4830972;29;20049;-81
2023/04/16 00:21:47;;;;;;;68.00;25.92;;;;;;;;;;4827106;29;20121;-81
2023/04/16 00:24:13;;;;;;;77.45;27.23;;;;;;;;;;4829612;29;20037;-81
2023/04/16 00:26:39;;;;;;;72.50;27.10;;;;;;;;;;4830289;29;20066;-81
2023/04/16 00:29:06;;;;;;;70.93;26.60;;;;;;;;;;4814736;29;20076;-82
2023/04/16 00:31:33;;;;;;;77.72;27.85;;;;;;;;;;4830573;29;20392;-81
2023/04/16 00:33:59;;;;;;;71.90;25.13;;;;;;;;;;4827496;29;20081;-81
2023/04/16 00:36:26;;;;;;;72.60;25.13;;;;;;;;;;4830973;29;20395;-81
2023/04/16 00:38:53;;;;;;;76.32;27.48;;;;;;;;;;4825502;29;20434;-82
2023/04/16 00:41:19;;;;;;;77.22;25.25;;;;;;;;;;4829343;29;20495;-81
2023/04/16 00:43:45;;;;;;;72.95;26.23;;;;;;;;;;4829901;29;20078;-81
2023/04/16 00:46:11;;;;;;;72.97;27.17;;;;;;;;;;4832097;29;20037;-81
2023/04/16 00:48:38;;;;;;;75.60;27.38;;;;;;;;;;4837879;29;20026;-81
2023/04/16 00:51:04;;;;;;;66.47;27.83;;;;;;;;;;4834234;29;20125;-81
2023/04/16 00:53:31;;;;;;;67.05;26.23;;;;;;;;;;4831571;29;22724;-81
2023/04/16 00:55:57;;;;;;;63.10;24.98;;;;;;;;;;4831286;29;20136;-81
2023/04/16 00:58:23;;;;;;;68.25;26.92;;;;;;;;;;4832848;29;20049;-81
2023/04/16 01:00:49;;;;;;;67.68;25.70;;;;;;;;;;4830542;29;20034;-81
2023/04/16 01:03:15;;;;;;;69.57;27.88;;;;;;;;;;4831554;29;20050;-80
2023/04/16 01:05:41;;;;;;;78.75;27.00;;;;;;;;;;4834210;29;20099;-80
2023/04/16 01:08:14;;;;;;;90.00;28.25;;;;;;;;;;4832259;29;20456;-80
2023/04/16 01:10:40;;;;;;;72.35;26.63;;;;;;;;;;4831817;29;20034;-80
2023/04/16 01:13:06;;;;;;;79.78;27.27;;;;;;;;;;4833213;29;20039;-80
2023/04/16 01:15:32;;;;;;;71.22;26.02;;;;;;;;;;4816214;29;20045;-80
2023/04/16 01:17:58;;;;;;;62.25;26.17;;;;;;;;;;4829237;29;20094;-80
2023/04/16 01:20:24;;;;;;;69.72;27.33;;;;;;;;;;4837148;29;20037;-79
2023/04/16 01:22:50;;;;;;;62.20;25.85;;;;;;;;;;4833403;29;20744;-79
2023/04/16 01:25:28;;;;;;;67.85;26.38;;;;;;;;;;4840074;29;20046;-82
2023/04/16 01:27:56;;;;;;;74.60;30.25;;;;;;;;;;4835007;29;20388;-80
2023/04/16 01:30:22;;;;;;;56.42;23.60;;;;;;;;;;4831361;29;20030;-81
2023/04/16 01:32:48;;;;;;;67.65;26.88;;;;;;;;;;4831068;29;20448;-78
2023/04/16 01:35:14;;;;;;;62.50;25.15;;;;;;;;;;4832148;29;20073;-78
2023/04/16 01:37:40;;;;;;;64.00;23.85;;;;;;;;;;4832442;29;20502;-79
2023/04/16 01:40:06;;;;;;;58.70;24.90;;;;;;;;;;4829798;29;20038;-78
2023/04/16 01:42:32;;;;;;;55.55;25.27;;;;;;;;;;4832834;29;20031;-78
2023/04/16 01:44:58;;;;;;;57.83;24.98;;;;;;;;;;4817435;29;20048;-80
2023/04/16 01:47:24;;;;;;;55.65;24.58;;;;;;;;;;4813918;29;20072;-79
2023/04/16 01:49:51;;;;;;;68.55;27.77;;;;;;;;;;4829210;29;20037;-79
2023/04/16 01:52:17;;;;;;;57.63;24.75;;;;;;;;;;4814664;29;20053;-79
2023/04/16 01:54:43;;;;;;;63.90;24.55;;;;;;;;;;4832632;29;20102;-79
2023/04/16 01:57:10;;;;;;;64.78;24.80;;;;;;;;;;4828950;29;20042;-79
2023/04/16 01:59:36;;;;;;;59.58;24.08;;;;;;;;;;4831957;29;20480;-79
2023/04/16 02:02:06;;;;;;;61.28;24.67;;;;;;;;;;4827865;29;20030;-79
2023/04/16 02:04:32;;;;;;;60.78;23.77;;;;;;;;;;4845021;29;20379;-79
2023/04/16 02:06:58;;;;;;;61.33;23.70;;;;;;;;;;4828448;29;20115;-78
2023/04/16 02:09:24;;;;;;;63.08;25.20;;;;;;;;;;4829921;29;20026;-78
2023/04/16 02:11:51;;;;;;;74.03;25.80;;;;;;;;;;4832933;29;20094;-79
2023/04/16 02:14:17;;;;;;;64.95;26.33;;;;;;;;;;4842366;29;20047;-79
2023/04/16 02:16:43;;;;;;;65.50;25.17;;;;;;;;;;4827912;29;20241;-79
2023/04/16 02:19:09;;;;;;;60.35;24.38;;;;;;;;;;4802443;29;20094;-79
2023/04/16 02:21:35;;;;;;;74.35;25.92;;;;;;;;;;4816274;29;20030;-79
2023/04/16 02:24:01;;;;;;;60.38;25.27;;;;;;;;;;4814379;29;20169;-79
2023/04/16 02:26:28;;;;;;;66.68;24.38;;;;;;;;;;4814285;29;20050;-78
2023/04/16 02:28:54;;;;;;;78.78;26.30;;;;;;;;;;4828808;29;20045;-78
2023/04/16 02:31:21;;;;;;;61.92;24.55;;;;;;;;;;4815231;29;20037;-79
2023/04/16 02:33:47;;;;;;;63.03;26.95;;;;;;;;;;4829187;29;20037;-79
2023/04/16 02:36:13;;;;;;;55.88;23.40;;;;;;;;;;4815546;29;20046;-78
2023/04/16 02:38:39;;;;;;;61.58;27.67;;;;;;;;;;4826680;29;20076;-79
2023/04/16 02:41:05;;;;;;;63.17;26.40;;;;;;;;;;4797583;29;20117;-80
2023/04/16 02:43:31;;;;;;;55.67;24.20;;;;;;;;;;4814088;29;20037;-79
2023/04/16 02:45:58;;;;;;;69.28;24.85;;;;;;;;;;4815801;29;20450;-79
2023/04/16 02:48:24;;;;;;;69.93;26.88;;;;;;;;;;4816080;29;20030;-79
2023/04/16 02:50:50;;;;;;;58.75;25.63;;;;;;;;;;4797529;29;20045;-79
2023/04/16 02:53:16;;;;;;;67.53;27.23;;;;;;;;;;4814066;29;20022;-79
2023/04/16 02:55:48;;;;;;;70.60;26.88;;;;;;;;;;4799625;29;20046;-79
2023/04/16 02:58:14;;;;;;;63.08;26.45;;;;;;;;;;4806845;29;20604;-78
2023/04/16 03:00:40;;;;;;;64.15;29.88;;;;;;;;;;4813070;29;20156;-79
2023/04/16 03:03:07;;;;;;;63.17;30.23;;;;;;;;;;4814672;29;20125;-79
2023/04/16 03:05:33;;;;;;;68.70;29.75;;;;;;;;;;4828386;29;20060;-79
2023/04/16 03:07:59;;;;;;;75.03;31.52;;;;;;;;;;4814081;29;20437;-79
2023/04/16 03:10:25;;;;;;;72.47;31.33;;;;;;;;;;4810347;29;20057;-78
2023/04/16 03:12:51;;;;;;;64.50;28.98;;;;;;;;;;4814737;29;20054;-78
2023/04/16 03:15:17;;;;;;;65.60;29.45;;;;;;;;;;4813152;29;20038;-78
2023/04/16 03:17:43;;;;;;;78.47;30.52;;;;;;;;;;4839709;29;20055;-78
2023/04/16 03:20:10;;;;;;;65.53;31.50;;;;;;;;;;4828771;29;20061;-78
2023/04/16 03:22:36;;;;;;;80.70;31.58;;;;;;;;;;4827154;29;20076;-78
2023/04/16 03:25:02;;;;;;;72.15;28.45;;;;;;;;;;4814567;29;20121;-78
2023/04/16 03:27:28;;;;;;;85.88;30.35;;;;;;;;;;4828828;29;20154;-79
2023/04/16 03:29:54;;;;;;;66.35;28.63;;;;;;;;;;4827536;29;20038;-78
2023/04/16 03:32:20;;;;;;;73.40;29.75;;;;;;;;;;4830053;29;20042;-79
2023/04/16 03:34:46;;;;;;;79.78;30.92;;;;;;;;;;4826084;29;20049;-79
2023/04/16 03:37:12;;;;;;;84.15;33.83;;;;;;;;;;4829672;29;20061;-78
2023/04/16 03:39:38;;;;;;;76.50;31.60;;;;;;;;;;4815499;29;20038;-79
2023/04/16 03:42:04;;;;;;;74.50;31.02;;;;;;;;;;4828883;29;20030;-79
2023/04/16 03:44:30;;;;;;;74.68;30.67;;;;;;;;;;4839600;29;20726;-79
2023/04/16 03:46:57;;;;;;;82.50;30.88;;;;;;;;;;4813469;29;20030;-79
2023/04/16 03:49:23;;;;;;;77.95;31.92;;;;;;;;;;4827912;29;20030;-79
2023/04/16 03:51:49;;;;;;;72.15;31.08;;;;;;;;;;4828822;29;20048;-79
2023/04/16 03:54:15;;;;;;;73.25;30.38;;;;;;;;;;4830292;29;20052;-79
2023/04/16 03:56:41;;;;;;;82.20;30.08;;;;;;;;;;4814381;29;20094;-79
2023/04/16 03:59:07;;;;;;;78.80;29.85;;;;;;;;;;4828266;29;20047;-79
2023/04/16 04:01:33;;;;;;;67.85;28.70;;;;;;;;;;4828397;29;20025;-80
2023/04/16 04:03:59;;;;;;;75.13;28.00;;;;;;;;;;4829747;29;20036;-79
2023/04/16 04:06:26;;;;;;;78.88;28.38;;;;;;;;;;4828350;29;20044;-79
2023/04/16 04:08:52;;;;;;;81.50;25.98;;;;;;;;;;4827461;29;20495;-79
2023/04/16 04:11:18;;;;;;;76.97;25.88;;;;;;;;;;4832088;29;20026;-80
2023/04/16 04:13:44;;;;;;;73.25;27.50;;;;;;;;;;4833143;29;20030;-79
2023/04/16 04:16:10;;;;;;;75.25;27.85;;;;;;;;;;4814378;29;20126;-79
2023/04/16 04:18:36;;;;;;;70.63;26.55;;;;;;;;;;4817209;29;20038;-79
2023/04/16 04:21:06;;;;;;;62.35;25.42;;;;;;;;;;4807164;29;20368;-79
2023/04/16 04:23:32;;;;;;;63.25;26.33;;;;;;;;;;4820124;29;20090;-78
2023/04/16 04:26:02;;;;;;;59.67;26.85;;;;;;;;;;4817497;29;21271;-79
2023/04/16 04:28:28;;;;;;;66.97;25.83;;;;;;;;;;4817924;29;20042;-80
2023/04/16 04:30:54;;;;;;;73.63;26.35;;;;;;;;;;4831751;29;20102;-79
2023/04/16 04:33:20;;;;;;;66.78;26.25;;;;;;;;;;4816847;29;20425;-80
2023/04/16 04:35:46;;;;;;;75.00;27.83;;;;;;;;;;4816667;29;21087;-80
2023/04/16 04:38:12;;;;;;;71.30;27.67;;;;;;;;;;4830708;29;20440;-80
2023/04/16 04:40:38;;;;;;;80.55;29.48;;;;;;;;;;4816565;29;20117;-80
2023/04/16 04:43:04;;;;;;;87.05;30.52;;;;;;;;;;4815359;29;20372;-80
2023/04/16 04:45:30;;;;;;;77.45;29.15;;;;;;;;;;4817900;29;20433;-80
2023/04/16 04:47:56;;;;;;;70.85;28.33;;;;;;;;;;4818950;29;20037;-79
2023/04/16 04:50:23;;;;;;;84.47;28.80;;;;;;;;;;4802354;29;20050;-79
2023/04/16 04:52:49;;;;;;;83.32;28.63;;;;;;;;;;4829122;29;20373;-79
2023/04/16 04:55:15;;;;;;;94.78;30.83;;;;;;;;;;4813469;29;20046;-78
2023/04/16 04:57:41;;;;;;;87.75;30.73;;;;;;;;;;4817004;29;20042;-78
2023/04/16 05:00:08;;;;;;;101.50;29.10;;;;;;;;;;4828971;29;20578;-79
2023/04/16 05:02:34;;;;;;;85.85;26.55;;;;;;;;;;4830479;29;20442;-79
2023/04/16 05:05:00;;;;;;;76.90;26.85;;;;;;;;;;4830546;29;20037;-79
2023/04/16 05:07:26;;;;;;;84.10;26.65;;;;;;;;;;4830491;29;20110;-79
2023/04/16 05:09:52;;;;;;;77.82;25.75;;;;;;;;;;4831956;29;20575;-79
2023/04/16 05:12:18;;;;;;;80.15;25.27;;;;;;;;;;4816311;29;20068;-79
2023/04/16 05:14:44;;;;;;;71.07;24.52;;;;;;;;;;4830904;29;20046;-80
2023/04/16 05:17:11;;;;;;;67.25;24.77;;;;;;;;;;4828950;29;20050;-79
2023/04/16 05:19:37;;;;;;;75.03;26.58;;;;;;;;;;4816500;29;20030;-78
2023/04/16 05:22:03;;;;;;;76.50;24.50;;;;;;;;;;4816823;29;20051;-78
2023/04/16 05:24:29;;;;;;;66.55;24.40;;;;;;;;;;4814551;29;20526;-78
2023/04/16 05:26:56;;;;;;;78.22;24.20;;;;;;;;;;4831144;29;20125;-79
2023/04/16 05:29:22;;;;;;;71.00;24.30;;;;;;;;;;4829188;29;20078;-79
2023/04/16 05:31:49;;;;;;;73.32;24.95;;;;;;;;;;4800156;29;20053;-79
2023/04/16 05:34:15;;;;;;;78.18;25.67;;;;;;;;;;4816630;29;20396;-78
2023/04/16 05:36:41;;;;;;;83.65;24.75;;;;;;;;;;4817645;29;20190;-79
2023/04/16 05:39:07;;;;;;;71.97;24.77;;;;;;;;;;4827717;29;20475;-79
2023/04/16 05:41:33;;;;;;;71.10;23.63;;;;;;;;;;4799322;29;20053;-80
2023/04/16 05:43:59;;;;;;;90.47;23.73;;;;;;;;;;4802514;29;20030;-81
2023/04/16 05:46:25;;;;;;;74.50;23.50;;;;;;;;;;4830201;29;20037;-80
2023/04/16 05:48:51;;;;;;;67.65;24.05;;;;;;;;;;4817517;29;20034;-80
2023/04/16 05:51:18;;;;;;;70.53;24.67;;;;;;;;;;4804570;29;20034;-78
2023/04/16 05:53:44;;;;;;;64.82;24.50;;;;;;;;;;4816796;29;20116;-81
2023/04/16 05:56:10;;;;;;;72.68;22.77;;;;;;;;;;4818617;29;20034;-85
2023/04/16 05:58:36;;;;;;;75.95;23.88;;;;;;;;;;4834125;29;20041;-84
2023/04/16 06:01:02;;;;;;;70.15;23.38;;;;;;;;;;4832961;29;20057;-88
2023/04/16 06:03:31;;;;;;;86.13;30.30;;;;;;;;;;4818572;29;20101;-81
2023/04/16 06:05:57;;;;;;;71.18;24.95;;;;;;;;;;4813959;29;20118;-85
2023/04/16 06:08:23;;;;;;;61.42;24.33;;;;;;;;;;4828344;29;20443;-86
2023/04/16 06:10:50;;;;;;;69.65;24.50;;;;;;;;;;4826874;29;20365;-85
2023/04/16 06:13:16;;;;;;;64.68;22.20;;;;;;;;;;4938065;24;20482;-83
2023/04/16 06:15:42;;;;;;;73.68;26.45;;;;;;;;;;4862618;29;20044;-83
2023/04/16 06:18:08;;;;;;;71.32;24.95;;;;;;;;;;4874390;29;20037;-84
2023/04/16 06:20:35;;;;;;;85.85;25.35;;;;;;;;;;4867595;24;20058;-85
2023/04/16 06:23:10;;;;;;;68.13;23.67;;;;;;;;;;4841977;29;20384;-83
2023/04/16 06:25:36;;;;;;;71.70;24.67;;;;;;;;;;4838091;29;20074;-83
2023/04/16 06:28:05;;;;;;;84.60;25.08;;;;;;;;;;4839067;29;21079;-87
2023/04/16 06:30:31;;;;;;;82.32;26.13;;;;;;;;;;4841825;29;20033;-84
2023/04/16 06:32:57;;;;;;;71.80;24.45;;;;;;;;;;4827961;29;20038;-80
2023/04/16 06:35:23;;;;;;;74.40;24.13;;;;;;;;;;4827137;29;20138;-81
2023/04/16 06:37:49;;;;;;;74.20;25.00;;;;;;;;;;4817738;29;20384;-82
2023/04/16 06:40:45;;;;;;;57.60;22.63;;;;;;;;;;4835034;29;20080;-82
2023/04/16 06:43:11;;;;;;;72.32;23.42;;;;;;;;;;4820941;29;20058;-85
2023/04/16 06:45:37;;;;;;;60.90;22.88;;;;;;;;;;4823278;29;20030;-82
2023/04/16 06:48:03;;;;;;;70.90;23.40;;;;;;;;;;4829241;29;20105;-79
2023/04/16 06:50:29;;;;;;;69.43;22.92;;;;;;;;;;4830340;29;20026;-83
2023/04/16 06:52:56;;;;;;;62.25;23.08;;;;;;;;;;4832078;29;20037;-79
2023/04/16 06:55:22;;;;;;;63.65;22.08;;;;;;;;;;4828733;29;20052;-79
2023/04/16 06:57:48;;;;;;;62.53;22.85;;;;;;;;;;4819414;29;20048;-82
2023/04/16 07:00:14;;;;;;;71.30;24.00;;;;;;;;;;4834424;29;20030;-82
2023/04/16 07:02:40;;;;;;;62.30;22.73;;;;;;;;;;4834022;29;20078;-81
2023/04/16 07:05:07;;;;;;;74.97;24.95;;;;;;;;;;4839207;29;20072;-82
2023/04/16 07:07:33;;;;;;;65.13;23.83;;;;;;;;;;4845344;29;20051;-81
2023/04/16 07:09:59;;;;;;;67.10;20.02;;;;;;;;;;4842911;29;20046;-81
2023/04/16 07:12:26;;;;;;;66.90;21.80;;;;;;;;;;4847989;29;20060;-81
2023/04/16 07:14:52;;;;;;;70.70;21.67;;;;;;;;;;4838705;29;20049;-80
2023/04/16 07:17:18;;;;;;;58.38;20.55;;;;;;;;;;4831735;29;20053;-82
2023/04/16 07:19:44;;;;;;;61.13;19.35;;;;;;;;;;4830386;29;20607;-82
2023/04/16 07:22:38;;;;;;;62.10;21.48;;;;;;;;;;4836413;29;20472;-77
2023/04/16 07:27:43;;;;;;;59.13;19.05;;;;;;;;;;4955170;24;20100;-80
2023/04/16 07:30:10;;;;;;;56.95;20.52;;;;;;;;;;4862200;29;20049;-82
2023/04/16 07:32:36;;;;;;;67.25;21.17;;;;;;;;;;4846960;29;20132;-82
2023/04/16 07:35:04;;;;;;;65.57;22.05;;;;;;;;;;4847393;29;20056;-81
2023/04/16 07:37:44;;;;;;;58.53;22.30;;;;;;;;;;4839481;29;20134;-83
2023/04/16 07:40:10;;;;;;;54.70;19.00;;;;;;;;;;4855325;29;20092;-84
2023/04/16 07:43:05;;;;;;;;;;;;;;;;;;;;;
2023/04/16 07:45:32;;;;;;;59.45;19.58;;;;;;;;;;4845355;29;20459;-83
2023/04/16 07:47:58;;;;;;;65.32;21.98;;;;;;;;;;4836136;29;20032;-83
2023/04/16 07:50:25;;;;;;;62.72;21.20;;;;;;;;;;4835946;29;20029;-80
2023/04/16 07:52:56;;;;;;;57.40;20.67;;;;;;;;;;4842599;29;20030;-86
2023/04/16 07:55:22;;;;;;;56.23;18.43;;;;;;;;;;4849624;29;20038;-91
2023/04/16 07:57:48;;;;;;;44.65;18.23;;;;;;;;;;4850739;29;20034;-87
2023/04/16 08:00:15;;;;;;;56.72;20.40;;;;;;;;;;4911289;24;20050;-85
2023/04/16 08:02:48;;;;;;;54.78;19.60;;;;;;;;;;4835221;29;20075;-81
2023/04/16 08:05:14;;;;;;;61.97;22.02;;;;;;;;;;4850056;29;20082;-84
2023/04/16 08:07:45;;;;;;;52.15;20.13;;;;;;;;;;4832524;29;20037;-83
2023/04/16 08:10:12;;;;;;;61.67;18.30;;;;;;;;;;4849657;29;20021;-81
2023/04/16 08:12:38;;;;;;;48.30;19.25;;;;;;;;;;4875138;24;20061;-82
2023/04/16 08:15:04;;;;;;;44.75;17.27;;;;;;;;;;4999136;24;21590;-82
2023/04/16 08:17:31;;;;;;;46.70;16.55;;;;;;;;;;5065001;24;20057;-82
2023/04/16 08:19:58;;;;;;;48.50;16.77;;;;;;;;;;4882731;29;20053;-80
2023/04/16 08:22:25;;;;;;;50.28;17.92;;;;;;;;;;4943015;24;20078;-85
2023/04/16 08:24:54;;;;;;;47.35;18.17;;;;;;;;;;4854364;29;20038;-84
2023/04/16 08:27:20;;;;;;;49.08;16.33;;;;;;;;;;4845788;29;20156;-84
2023/04/16 08:29:47;;;;;;;46.65;15.38;;;;;;;;;;4851042;29;20045;-84
2023/04/16 08:32:13;;;;;;;44.60;16.85;;;;;;;;;;4929548;23;20076;-82
2023/04/16 08:37:22;;;;;;;;;;;;;;;;;;4901712;24;20748;-81
2023/04/16 08:39:48;;;;;;;45.45;16.42;;;;;;;;;;4859350;29;19917;-85
2023/04/16 08:42:27;;;;;;;45.80;15.98;;;;;;;;;;4851916;29;20045;-84
2023/04/16 08:44:59;;;;;;;46.83;16.65;;;;;;;;;;5053068;23;20054;-84
2023/04/16 08:50:08;;;;;;;;;;;;;;;;;;5009300;24;20084;-88
2023/04/16 08:52:37;;;;;;;53.60;17.00;;;;;;;;;;4860231;29;19916;-88
2023/04/16 08:55:11;;;;;;;45.67;16.40;;;;;;;;;;4838218;29;20037;-85
2023/04/16 08:58:13;;;;;;;46.75;16.90;;;;;;;;;;4858329;29;20033;-87
2023/04/16 09:00:40;;;;;;;44.58;16.27;;;;;;;;;;4916977;24;20049;-87
2023/04/16 09:03:05;;;;;;;47.67;15.40;;;;;;;;;;4954295;24;20051;31
2023/04/16 09:08:08;;;;;;;42.50;15.77;;;;;;;;;;4996995;23;20045;-84
2023/04/16 09:10:34;;;;;;;42.88;16.02;;;;;;;;;;4869920;29;20491;-90
2023/04/16 09:13:00;;;;;;;49.22;16.73;;;;;;;;;;4947774;24;20046;-83
2023/04/16 09:15:27;;;;;;;46.58;15.40;;;;;;;;;;4818269;29;20161;-83
2023/04/16 09:17:55;;;;;;;38.92;15.73;;;;;;;;;;4824302;29;20444;-82
2023/04/16 09:20:29;;;;;;;38.53;16.70;;;;;;;;;;4822158;29;20027;-80
2023/04/16 09:26:43;;;;;;;52.88;15.20;;;;;;;;;;4764165;30;20035;-80
2023/04/16 09:29:12;;;;;;;41.38;14.88;;;;;;;;;;4746445;30;20104;-81
2023/04/16 09:31:38;;;;;;;45.95;15.68;;;;;;;;;;4806434;29;20046;-80
2023/04/16 09:34:08;;;;;;;40.03;15.13;;;;;;;;;;4812025;29;20930;-80
2023/04/16 09:36:43;;;;;;;47.35;15.75;;;;;;;;;;4818916;29;20050;-80
2023/04/16 09:42:05;;;;;;;49.45;15.93;;;;;;;;;;4828552;29;20107;-81
2023/04/16 09:44:52;;;;;;;49.65;17.05;;;;;;;;;;4830871;29;20038;-81
2023/04/16 09:48:11;;;;;;;39.88;16.08;;;;;;;;;;4825932;29;20054;-81
2023/04/16 09:51:02;;;;;;;37.67;14.68;;;;;;;;;;4793802;29;20444;-81
2023/04/16 09:53:30;;;;;;;45.58;17.08;;;;;;;;;;4752982;30;20032;-81
2023/04/16 09:55:57;;;;;;;56.72;15.05;;;;;;;;;;4737538;29;20497;-82
2023/04/16 09:58:29;;;;;;;37.17;14.38;;;;;;;;;;4816724;29;20030;-81
2023/04/16 10:01:01;;;;;;;43.95;16.60;;;;;;;;;;4808845;29;20680;-81
2023/04/16 10:03:31;;;;;;;43.78;14.95;;;;;;;;;;4832158;29;20029;-82
2023/04/16 10:06:06;;;;;;;37.70;14.68;;;;;;;;;;4835138;29;20043;-83
2023/04/16 10:08:32;;;;;;;38.58;16.05;;;;;;;;;;4842222;29;20516;-83
2023/04/16 10:10:59;;;;;;;41.38;14.82;;;;;;;;;;4835706;29;20034;-82
2023/04/16 10:13:29;;;;;;;53.88;16.23;;;;;;;;;;4818625;29;20062;-81
2023/04/16 10:15:57;;;;;;;43.00;16.35;;;;;;;;;;4844143;29;20073;-81
2023/04/16 10:18:26;;;;;;;40.72;16.73;;;;;;;;;;4839378;29;20069;-81
2023/04/16 10:20:55;;;;;;;45.55;15.55;;;;;;;;;;4804675;29;20129;-81
2023/04/16 10:23:54;;;;;;;43.10;14.93;;;;;;;;;;4820761;29;20058;-80
2023/04/16 10:26:24;;;;;;;42.90;15.32;;;;;;;;;;4823983;29;20130;-82
2023/04/16 10:28:50;;;;;;;42.58;16.92;;;;;;;;;;4820090;29;20038;-82
2023/04/16 10:31:16;;;;;;;47.35;16.02;;;;;;;;;;4834797;29;20054;-82
2023/04/16 10:33:46;;;;;;;40.60;14.35;;;;;;;;;;4821411;29;20133;-81
2023/04/16 10:39:56;;;;;;;37.17;14.38;;;;;;;;;;4816246;29;20073;-81
2023/04/16 10:45:15;;;;;;;37.58;14.38;;;;;;;;;;4821796;29;19936;-82
2023/04/16 10:47:47;;;;;;;33.13;13.90;;;;;;;;;;4837430;29;20042;-82
2023/04/16 10:50:16;;;;;;;38.33;14.80;;;;;;;;;;4825384;29;20412;-82
2023/04/16 10:52:42;;;;;;;34.50;14.07;;;;;;;;;;4818868;29;20378;-82
2023/04/16 10:58:31;;;;;;;41.67;14.50;;;;;;;;;;4824681;29;20122;-84
2023/04/16 11:01:01;;;;;;;32.40;13.70;;;;;;;;;;4830053;29;20479;-84
2023/04/16 11:03:33;;;;;;;40.47;14.90;;;;;;;;;;4825335;29;20038;-84
2023/04/16 11:06:12;;;;;;;33.75;14.32;;;;;;;;;;4836905;29;20405;-82
2023/04/16 11:08:40;;;;;;;44.97;19.52;;;;;;;;;;4821297;29;20119;-87
2023/04/16 11:11:06;;;;;;;42.28;16.63;;;;;;;;;;4847481;29;20042;-86
2023/04/16 11:13:32;;;;;;;39.33;16.05;;;;;;;;;;4840740;29;20054;-86
2023/04/16 11:15:58;;;;;;;47.63;15.32;;;;;;;;;;4823103;29;20034;-81
2023/04/16 11:18:32;;;;;;;41.95;16.63;;;;;;;;;;4830633;29;20515;-80
2023/04/16 11:20:58;;;;;;;44.33;16.95;;;;;;;;;;4816890;29;20050;-81
2023/04/16 11:26:32;;;;;;;48.35;16.98;;;;;;;;;;4794376;29;20050;-80
2023/04/16 11:28:59;;;;;;;37.90;16.35;;;;;;;;;;4840713;29;20038;-83
2023/04/16 11:31:26;;;;;;;43.67;17.63;;;;;;;;;;4838907;29;20053;-83
2023/04/16 11:33:52;;;;;;;45.28;17.40;;;;;;;;;;4823344;29;20130;-79
2023/04/16 11:36:18;;;;;;;40.60;16.38;;;;;;;;;;4819764;29;20094;-78
2023/04/16 11:38:45;;;;;;;38.58;16.05;;;;;;;;;;4823427;29;20457;-78
2023/04/16 11:41:18;;;;;;;40.40;16.42;;;;;;;;;;4806385;29;20402;-78
2023/04/16 11:43:44;;;;;;;41.20;15.68;;;;;;;;;;4814766;29;20041;-76
2023/04/16 11:46:11;;;;;;;33.83;15.70;;;;;;;;;;4825561;29;20062;-80
2023/04/16 11:48:58;;;;;;;35.22;14.82;;;;;;;;;;4837068;29;20480;-82
2023/04/16 11:51:24;;;;;;;28.73;13.73;;;;;;;;;;4836689;29;20501;-82
2023/04/16 11:53:54;;;;;;;31.70;13.48;;;;;;;;;;4834955;29;20469;-80
2023/04/16 11:56:28;;;;;;;37.28;14.75;;;;;;;;;;4835560;29;20042;-78
2023/04/16 11:59:07;;;;;;;32.97;14.02;;;;;;;;;;4811312;29;20039;-81
2023/04/16 12:01:36;;;;;;;30.60;13.77;;;;;;;;;;4815023;29;20034;-81
2023/04/16 12:04:02;;;;;;;32.67;14.40;;;;;;;;;;4809676;29;20039;-84
2023/04/16 12:06:28;;;;;;;34.97;14.25;;;;;;;;;;4821150;29;20041;-81
2023/04/16 12:08:54;;;;;;;33.25;14.02;;;;;;;;;;4821642;29;20022;-82
2023/04/16 12:11:21;;;;;;;33.95;14.25;;;;;;;;;;4815929;29;20102;-81
2023/04/16 12:14:05;;;;;;;34.97;14.65;;;;;;;;;;4797643;29;20046;-81
2023/04/16 12:16:31;;;;;;;32.08;14.20;;;;;;;;;;4833490;29;20568;-82
2023/04/16 12:18:59;;;;;;;33.72;13.95;;;;;;;;;;4817484;29;20041;-81
2023/04/16 12:21:25;;;;;;;35.28;13.95;;;;;;;;;;4803103;29;20030;-80
2023/04/16 12:23:53;;;;;;;36.53;14.02;;;;;;;;;;4811602;29;20071;-78
2023/04/16 12:26:19;;;;;;;29.83;13.75;;;;;;;;;;4825834;29;20554;-79
2023/04/16 12:28:45;;;;;;;34.78;13.57;;;;;;;;;;4816728;29;20041;-77
2023/04/16 12:31:11;;;;;;;25.92;12.90;;;;;;;;;;4828887;29;20085;-81
2023/04/16 12:33:37;;;;;;;30.70;12.48;;;;;;;;;;4820705;29;20034;-77
2023/04/16 12:36:19;;;;;;;26.80;13.30;;;;;;;;;;4830909;29;20038;-79
2023/04/16 12:38:45;;;;;;;26.45;13.35;;;;;;;;;;4832864;29;20062;-76
2023/04/16 12:41:11;;;;;;;28.30;13.73;;;;;;;;;;4830545;29;20503;-77
2023/04/16 12:43:37;;;;;;;31.15;13.70;;;;;;;;;;4840049;29;20087;-76
2023/04/16 12:46:03;;;;;;;26.25;13.98;;;;;;;;;;4831383;29;20042;-81
2023/04/16 12:54:49;;;;;;;;;;;;;;;;;;4809849;29;20419;-79
2023/04/16 12:57:15;;;;;;;21.80;13.10;;;;;;;;;;4857968;29;19920;-82
2023/04/16 12:59:41;;;;;;;24.55;13.40;;;;;;;;;;4847163;29;20034;-81
2023/04/16 13:02:08;;;;;;;24.48;12.82;;;;;;;;;;4836983;29;20060;-81
2023/04/16 13:04:34;;;;;;;29.20;13.65;;;;;;;;;;4807175;29;20045;-83
2023/04/16 13:07:00;;;;;;;24.88;12.73;;;;;;;;;;4812002;29;20038;-77
2023/04/16 13:09:26;;;;;;;24.33;13.07;;;;;;;;;;4825286;29;20023;-85
2023/04/16 13:11:52;;;;;;;24.98;12.98;;;;;;;;;;4851342;29;20060;-78
2023/04/16 13:14:18;;;;;;;29.25;14.65;;;;;;;;;;4838120;29;20049;-86
2023/04/16 13:16:44;;;;;;;23.67;12.65;;;;;;;;;;4838036;29;20472;-80
2023/04/16 13:19:10;;;;;;;25.92;13.18;;;;;;;;;;4933200;24;20095;-79
2023/04/16 13:21:37;;;;;;;25.42;12.07;;;;;;;;;;4873918;29;20048;-82
2023/04/16 13:24:03;;;;;;;27.23;13.38;;;;;;;;;;4883870;29;20149;-91
2023/04/16 13:26:29;;;;;;;25.58;13.45;;;;;;;;;;4877133;29;20037;-90
2023/04/16 13:28:55;;;;;;;25.42;13.02;;;;;;;;;;4855108;29;20025;-89
2023/04/16 13:31:21;;;;;;;26.58;13.27;;;;;;;;;;4873119;29;20068;-79
2023/04/16 13:33:47;;;;;;;24.05;12.68;;;;;;;;;;4873686;29;20044;-80
2023/04/16 13:36:13;;;;;;;22.42;12.43;;;;;;;;;;4873628;29;20085;-80
2023/04/16 13:38:41;;;;;;;29.20;13.27;;;;;;;;;;4876311;29;20037;-81
2023/04/16 13:41:07;;;;;;;28.45;12.25;;;;;;;;;;4876773;29;20033;-79
2023/04/16 13:43:33;;;;;;;21.90;12.82;;;;;;;;;;4868623;29;20069;-80
2023/04/16 13:45:59;;;;;;;21.95;12.60;;;;;;;;;;4863241;29;20035;-80
2023/04/16 13:48:34;;;;;;;24.77;15.88;;;;;;;;;;4863761;29;20033;-83
2023/04/16 13:51:00;;;;;;;24.40;12.75;;;;;;;;;;4862842;29;20265;-83
2023/04/16 13:53:32;;;;;;;23.38;11.75;;;;;;;;;;4863444;29;20041;-79
2023/04/16 13:55:58;;;;;;;24.67;12.35;;;;;;;;;;4850609;29;20186;-76
2023/04/16 13:58:24;;;;;;;26.77;12.45;;;;;;;;;;4870708;29;20423;-76
2023/04/16 14:00:50;;;;;;;22.42;11.77;;;;;;;;;;4850846;29;20042;-79
2023/04/16 14:03:16;;;;;;;25.52;11.85;;;;;;;;;;4866999;29;20097;-80
2023/04/16 14:05:42;;;;;;;18.60;10.93;;;;;;;;;;4855579;29;20424;-78
2023/04/16 14:08:09;;;;;;;20.85;11.18;;;;;;;;;;4868973;29;20021;-78
2023/04/16 14:10:35;;;;;;;28.15;13.13;;;;;;;;;;4876269;29;20056;-81
2023/04/16 14:13:01;;;;;;;28.27;12.70;;;;;;;;;;4884271;29;20032;-81
2023/04/16 14:15:28;;;;;;;24.35;12.50;;;;;;;;;;4859007;29;20041;-83
2023/04/16 14:17:54;;;;;;;28.23;16.80;;;;;;;;;;4872479;29;20372;-83
2023/04/16 14:20:21;;;;;;;27.83;12.55;;;;;;;;;;4863150;29;20053;-82
2023/04/16 14:22:47;;;;;;;26.00;12.73;;;;;;;;;;4851422;29;20117;-86
2023/04/16 14:25:13;;;;;;;22.08;13.23;;;;;;;;;;4853162;29;20041;-80
2023/04/16 14:27:40;;;;;;;18.73;11.85;;;;;;;;;;4875525;29;20058;-80
2023/04/16 14:30:06;;;;;;;24.45;12.63;;;;;;;;;;4849052;29;20033;-88
2023/04/16 14:32:32;;;;;;;25.35;11.85;;;;;;;;;;4867700;29;20184;-84
2023/04/16 14:34:58;;;;;;;19.42;11.18;;;;;;;;;;4868870;29;20032;-83
2023/04/16 14:37:25;;;;;;;22.40;12.40;;;;;;;;;;4862072;29;20041;-85
2023/04/16 14:39:51;;;;;;;21.58;11.75;;;;;;;;;;4856505;29;20048;-84
2023/04/16 14:42:17;;;;;;;22.40;12.50;;;;;;;;;;4859245;29;20396;-83
2023/04/16 14:44:43;;;;;;;21.92;12.32;;;;;;;;;;4854425;29;20037;-82
2023/04/16 14:47:10;;;;;;;20.58;12.75;;;;;;;;;;4856215;29;20442;-85
2023/04/16 14:49:36;;;;;;;24.35;12.60;;;;;;;;;;4869092;29;20065;-82
2023/04/16 14:52:04;;;;;;;21.80;11.95;;;;;;;;;;4861232;29;20032;-85
2023/04/16 14:54:31;;;;;;;23.27;13.85;;;;;;;;;;4859581;29;20037;-84
2023/04/16 14:56:57;;;;;;;40.08;23.92;;;;;;;;;;4875614;29;20510;-84
2023/04/16 14:59:24;;;;;;;24.67;14.60;;;;;;;;;;4872223;29;20479;-83